Da Xian, China
Current Conditions -  °F | °C
As of 12:00 PM on Friday 28 Nov 2014 (Local Time) from ZUCK Reporting Station
Haze Haze  
Wind Chill: 59°   Ceiling: Unl
Heat Index: 59°   Visibility: 3mi
Dew Point: 52°   Wind: 2mph
Humidity: 77%   Direction: NA
Pressure: 30"   Gusts: NA
Location:  31.2°N, 107.5°E
Report Text: ZUCK 280400Z VRB01MPS 5000 BR SCT013 SCT030 15/11 Q1016 NOSIG
Loading
Personal Weather Stations






























Interactive Weather Map New forecast layout! Learn more

10-Day Weather Forecast

Advertisements
Track Severe Weather on mobile